Time;durP1;ratioP1;P1;durP2;ratioP2;P2;SDS_P1;SDS_P2;PMS_P1;PMS_P2;Temp;Humidity;BMP_temperature;BMP_pressure;BME280_temperature;BME280_humidity;BME280_pressure;Samples;Min_cycle;Max_cycle;Signal;HPM_P1;HPM_P2
2022/01/24 00:01:28;;;;;;;7.63;5.97;;;;;;;;;;4989756;28;20046;-63
2022/01/24 00:03:57;;;;;;;6.78;5.53;;;;;;;;;;5005906;28;20064;-63
2022/01/24 00:06:31;;;;;;;5.97;5.32;;;;;;;;;;4989463;28;20085;-63
2022/01/24 00:08:58;;;;;;;6.18;5.68;;;;;;;;;;5037941;28;20042;-64
2022/01/24 00:11:30;;;;;;;8.00;6.43;;;;;;;;;;5006764;28;20064;-64
2022/01/24 00:27:13;;;;;;;8.18;6.07;;;;;;;;;;5009215;28;20045;-62
2022/01/24 00:29:39;;;;;;;6.30;5.68;;;;;;;;;;5009954;28;20392;-63
2022/01/24 00:32:05;;;;;;;6.30;5.60;;;;;;;;;;5010832;28;20034;-62
2022/01/24 00:34:32;;;;;;;6.75;6.15;;;;;;;;;;5009740;28;20045;-61
2022/01/24 00:36:58;;;;;;;7.50;5.50;;;;;;;;;;5010970;28;20042;-62
2022/01/24 00:39:25;;;;;;;6.53;5.50;;;;;;;;;;5010048;28;20045;-62
2022/01/24 00:44:51;;;;;;;7.05;5.40;;;;;;;;;;5009770;28;20045;-62
2022/01/24 00:47:28;;;;;;;7.45;6.20;;;;;;;;;;5024062;28;20227;-62
2022/01/24 00:55:21;;;;;;;6.60;6.00;;;;;;;;;;5008004;28;20107;-63
2022/01/24 00:57:50;;;;;;;6.13;5.53;;;;;;;;;;4992914;28;20514;-62
2022/01/24 01:00:16;;;;;;;6.10;5.50;;;;;;;;;;5009740;28;20037;-62
2022/01/24 01:02:42;;;;;;;6.35;5.75;;;;;;;;;;5010708;28;20550;-62
2022/01/24 01:08:01;;;;;;;7.07;6.03;;;;;;;;;;5009734;28;20057;-63
2022/01/24 01:18:43;;;;;;;6.70;5.97;;;;;;;;;;5008269;28;20037;-63
2022/01/24 01:21:14;;;;;;;6.18;5.57;;;;;;;;;;5007672;28;20050;-63
2022/01/24 01:23:52;;;;;;;8.00;6.35;;;;;;;;;;5007971;28;20046;-61
2022/01/24 01:28:52;;;;;;;6.57;5.82;;;;;;;;;;5008287;28;20077;-63
2022/01/24 01:31:39;;;;;;;6.97;6.38;;;;;;;;;;4990780;28;20057;-63
2022/01/24 01:52:58;;;;;;;6.20;5.40;;;;;;;;;;5039108;28;20096;-61
2022/01/24 01:57:51;;;;;;;6.15;5.18;;;;;;;;;;5007916;28;20503;-61
2022/01/24 02:00:17;;;;;;;5.88;5.15;;;;;;;;;;5040936;28;20415;-62
2022/01/24 02:02:43;;;;;;;7.10;5.60;;;;;;;;;;5040792;28;20049;-61
2022/01/24 02:05:10;;;;;;;7.32;5.95;;;;;;;;;;5021746;28;20042;-63
2022/01/24 02:07:45;;;;;;;6.22;5.72;;;;;;;;;;5006562;28;20045;-62
2022/01/24 02:10:11;;;;;;;6.15;5.55;;;;;;;;;;5005218;28;20313;-63
2022/01/24 02:12:37;;;;;;;5.90;5.35;;;;;;;;;;5008806;28;20080;-63
2022/01/24 02:15:04;;;;;;;5.35;4.75;;;;;;;;;;5008143;28;20034;-63
2022/01/24 02:17:44;;;;;;;6.25;5.72;;;;;;;;;;5007175;28;20115;-63
2022/01/24 02:22:49;;;;;;;7.60;5.88;;;;;;;;;;5040711;28;20049;-63
2022/01/24 02:25:27;;;;;;;5.97;5.45;;;;;;;;;;5007235;28;20382;-62
2022/01/24 02:27:59;;;;;;;6.95;6.00;;;;;;;;;;5039772;28;20042;-63
2022/01/24 02:32:51;;;;;;;5.50;5.00;;;;;;;;;;5007499;28;20504;-62
2022/01/24 02:35:17;;;;;;;6.03;5.40;;;;;;;;;;5009182;28;20369;-61
2022/01/24 02:37:43;;;;;;;6.22;5.68;;;;;;;;;;5040198;28;20121;-61
2022/01/24 02:40:14;;;;;;;5.95;5.35;;;;;;;;;;5006595;28;20152;-62
2022/01/24 02:53:17;;;;;;;6.00;5.40;;;;;;;;;;5007072;28;20050;-63
2022/01/24 02:55:44;;;;;;;6.97;5.78;;;;;;;;;;5007020;28;20538;-62
2022/01/24 02:58:10;;;;;;;6.18;5.30;;;;;;;;;;5007315;28;20519;-61
2022/01/24 03:00:37;;;;;;;6.82;5.75;;;;;;;;;;5008231;28;20079;-61
2022/01/24 03:03:03;;;;;;;6.20;5.45;;;;;;;;;;5039773;28;20116;-62
2022/01/24 03:05:30;;;;;;;6.18;5.57;;;;;;;;;;5007542;28;20034;-61
2022/01/24 03:07:56;;;;;;;6.82;5.43;;;;;;;;;;5007382;28;20038;-61
2022/01/24 03:10:26;;;;;;;7.00;6.22;;;;;;;;;;4991584;28;20411;-61
2022/01/24 03:13:17;;;;;;;7.13;5.82;;;;;;;;;;4991126;28;20080;-61
2022/01/24 03:15:43;;;;;;;7.18;6.47;;;;;;;;;;5038387;28;20092;-63
2022/01/24 03:18:12;;;;;;;7.65;6.35;;;;;;;;;;5008093;28;20046;-62
2022/01/24 03:20:39;;;;;;;8.25;6.90;;;;;;;;;;5040097;28;20053;-63
2022/01/24 03:23:06;;;;;;;7.30;6.60;;;;;;;;;;5007553;28;20034;-63
2022/01/24 03:25:32;;;;;;;7.80;6.65;;;;;;;;;;5009411;28;20473;-63
2022/01/24 03:27:58;;;;;;;7.82;6.88;;;;;;;;;;5037072;28;20033;-65
2022/01/24 03:30:25;;;;;;;7.10;6.40;;;;;;;;;;5007621;28;20046;-63
2022/01/24 03:32:51;;;;;;;8.35;6.70;;;;;;;;;;5041532;28;20104;-62
2022/01/24 03:35:17;;;;;;;8.20;7.40;;;;;;;;;;5009516;28;20033;-62
2022/01/24 03:37:45;;;;;;;8.00;6.93;;;;;;;;;;5008490;28;20037;-62
2022/01/24 03:40:11;;;;;;;7.03;6.43;;;;;;;;;;5006274;28;20044;-63
2022/01/24 03:42:37;;;;;;;8.63;6.07;;;;;;;;;;5008461;28;20080;-61
2022/01/24 03:45:06;;;;;;;8.93;7.28;;;;;;;;;;5008256;28;20389;-62
2022/01/24 03:50:05;;;;;;;8.02;6.53;;;;;;;;;;5007358;28;20049;-62
2022/01/24 03:52:32;;;;;;;7.75;6.43;;;;;;;;;;5007303;28;20065;-61
2022/01/24 03:54:59;;;;;;;7.03;6.07;;;;;;;;;;5008403;28;20157;-62
2022/01/24 03:57:25;;;;;;;7.47;6.70;;;;;;;;;;5006870;28;20131;-62
2022/01/24 03:59:52;;;;;;;8.73;7.28;;;;;;;;;;5004122;28;20096;-62
2022/01/24 04:02:24;;;;;;;7.95;6.65;;;;;;;;;;5007355;28;20266;-62
2022/01/24 04:04:50;;;;;;;7.82;6.88;;;;;;;;;;5039452;28;20046;-62
2022/01/24 04:07:16;;;;;;;8.35;7.13;;;;;;;;;;4991081;28;20038;-60
2022/01/24 04:09:43;;;;;;;7.85;6.70;;;;;;;;;;4991378;28;20034;-60
2022/01/24 04:12:10;;;;;;;7.90;7.10;;;;;;;;;;5040452;28;20057;-62
2022/01/24 04:22:14;;;;;;;7.43;6.72;;;;;;;;;;5009071;28;20376;-61
2022/01/24 04:24:40;;;;;;;8.23;7.18;;;;;;;;;;5007371;28;20071;-61
2022/01/24 04:27:07;;;;;;;8.13;7.30;;;;;;;;;;4989568;28;20030;-62
2022/01/24 04:29:34;;;;;;;8.43;7.50;;;;;;;;;;5006898;28;20128;-61
2022/01/24 04:32:00;;;;;;;9.18;7.85;;;;;;;;;;5007999;28;20121;-61
2022/01/24 04:34:27;;;;;;;9.05;8.05;;;;;;;;;;5008230;28;20452;-62
2022/01/24 04:36:53;;;;;;;9.50;7.90;;;;;;;;;;5005937;28;20049;-62
2022/01/24 04:39:19;;;;;;;8.65;7.82;;;;;;;;;;5039273;28;20499;-61
2022/01/24 04:41:49;;;;;;;10.18;8.55;;;;;;;;;;5039568;28;20053;-62
2022/01/24 04:44:44;;;;;;;8.75;7.80;;;;;;;;;;5007393;28;20092;-62
2022/01/24 04:52:51;;;;;;;10.32;9.20;;;;;;;;;;5038086;28;20077;-62
2022/01/24 04:55:17;;;;;;;11.48;9.10;;;;;;;;;;5006470;28;20113;-62
2022/01/24 04:57:46;;;;;;;11.82;9.52;;;;;;;;;;5039533;28;20038;-62
2022/01/24 05:00:12;;;;;;;11.45;9.68;;;;;;;;;;5007257;28;20558;-63
2022/01/24 05:02:39;;;;;;;11.80;9.98;;;;;;;;;;5005515;28;20535;-61
2022/01/24 05:05:06;;;;;;;10.73;9.60;;;;;;;;;;5025519;28;20038;-62
2022/01/24 05:07:32;;;;;;;11.63;10.27;;;;;;;;;;5026884;28;20038;-61
2022/01/24 05:10:10;;;;;;;12.52;10.50;;;;;;;;;;5010908;28;20064;-62
2022/01/24 05:23:32;;;;;;;12.05;10.57;;;;;;;;;;5012125;28;20095;-60
2022/01/24 05:26:00;;;;;;;13.10;11.00;;;;;;;;;;5009870;28;20719;-62
2022/01/24 05:28:26;;;;;;;13.73;11.20;;;;;;;;;;5042362;28;20124;-61
2022/01/24 05:30:53;;;;;;;13.52;11.18;;;;;;;;;;5026022;28;20068;-62
2022/01/24 05:33:19;;;;;;;12.45;10.98;;;;;;;;;;5010939;28;20042;-62
2022/01/24 05:35:45;;;;;;;13.05;11.65;;;;;;;;;;4993071;28;20125;-62
2022/01/24 05:38:11;;;;;;;14.55;11.43;;;;;;;;;;5025196;28;20045;-62
2022/01/24 05:40:38;;;;;;;12.98;10.25;;;;;;;;;;4992957;28;20156;-63
2022/01/24 05:43:06;;;;;;;13.52;11.93;;;;;;;;;;5010711;28;20036;-61
2022/01/24 05:45:33;;;;;;;12.30;10.82;;;;;;;;;;5008786;28;20076;-62
2022/01/24 05:47:59;;;;;;;12.85;11.48;;;;;;;;;;5008783;28;20428;-61
2022/01/24 05:50:25;;;;;;;13.77;12.27;;;;;;;;;;5041581;28;20046;-62
2022/01/24 05:52:51;;;;;;;14.93;11.45;;;;;;;;;;5041835;28;20045;-62
2022/01/24 05:55:17;;;;;;;14.40;11.68;;;;;;;;;;5024939;28;20046;-62
2022/01/24 05:57:44;;;;;;;14.07;12.18;;;;;;;;;;5042387;28;20141;-62
2022/01/24 06:00:12;;;;;;;15.07;12.13;;;;;;;;;;5041189;28;20077;-62
2022/01/24 06:02:38;;;;;;;13.07;11.70;;;;;;;;;;5008763;28;20065;-63
2022/01/24 06:05:05;;;;;;;14.20;12.13;;;;;;;;;;5041780;28;20369;-63
2022/01/24 06:07:31;;;;;;;13.52;11.40;;;;;;;;;;5042055;28;20038;-61
2022/01/24 06:09:57;;;;;;;17.98;12.68;;;;;;;;;;5040779;28;20046;-62
2022/01/24 06:12:24;;;;;;;13.80;11.60;;;;;;;;;;4992626;28;20045;-61
2022/01/24 06:14:50;;;;;;;18.35;12.60;;;;;;;;;;5007496;28;20046;-62
2022/01/24 06:17:22;;;;;;;17.42;12.48;;;;;;;;;;5040899;28;20099;-62
2022/01/24 06:19:48;;;;;;;14.80;11.90;;;;;;;;;;5008687;28;20050;-62
2022/01/24 06:22:14;;;;;;;15.63;13.25;;;;;;;;;;5010022;28;20096;-61
2022/01/24 06:24:40;;;;;;;15.32;13.27;;;;;;;;;;5009062;28;20042;-62
2022/01/24 06:27:06;;;;;;;15.57;13.63;;;;;;;;;;5040614;28;20436;-63
2022/01/24 06:29:32;;;;;;;16.80;12.93;;;;;;;;;;5041564;28;20046;-64
2022/01/24 06:31:58;;;;;;;17.98;14.95;;;;;;;;;;5010562;28;20045;-60
2022/01/24 06:34:25;;;;;;;15.98;13.52;;;;;;;;;;5025705;28;20046;-61
2022/01/24 06:36:51;;;;;;;18.52;13.95;;;;;;;;;;5010776;28;20111;-60
2022/01/24 06:39:18;;;;;;;18.60;14.68;;;;;;;;;;5009479;28;20491;-61
2022/01/24 06:41:51;;;;;;;16.25;14.18;;;;;;;;;;5009080;28;20045;-62
2022/01/24 06:44:17;;;;;;;;;;;;;;;;;;5010804;28;20038;-62
2022/01/24 06:46:44;;;;;;;19.88;14.82;;;;;;;;;;5007612;28;20023;-61
2022/01/24 06:49:11;;;;;;;17.67;14.00;;;;;;;;;;5009368;28;20056;-61
2022/01/24 06:51:37;;;;;;;17.83;14.93;;;;;;;;;;5010442;28;20037;-62
2022/01/24 06:54:03;;;;;;;17.05;14.25;;;;;;;;;;5008732;28;20060;-61
2022/01/24 06:56:29;;;;;;;19.48;16.02;;;;;;;;;;5010651;28;20038;-62
2022/01/24 06:58:55;;;;;;;19.52;15.50;;;;;;;;;;5009121;28;20048;-62
2022/01/24 07:01:21;;;;;;;21.02;16.88;;;;;;;;;;5010514;28;20044;-62
2022/01/24 07:03:47;;;;;;;19.90;17.25;;;;;;;;;;5009057;28;20046;-61
2022/01/24 07:06:14;;;;;;;19.80;15.70;;;;;;;;;;5025494;28;20057;-62
2022/01/24 07:08:40;;;;;;;18.67;15.25;;;;;;;;;;5042340;28;20049;-62
2022/01/24 07:11:07;;;;;;;19.88;16.80;;;;;;;;;;5009227;28;20281;-62
2022/01/24 07:13:33;;;;;;;18.63;15.95;;;;;;;;;;5025323;28;20499;-61
2022/01/24 07:16:03;;;;;;;22.00;17.05;;;;;;;;;;5025269;28;20057;-62
2022/01/24 07:20:56;;;;;;;19.42;17.10;;;;;;;;;;5008156;28;20081;-62
2022/01/24 07:23:23;;;;;;;22.75;18.15;;;;;;;;;;5016318;28;20357;-62
2022/01/24 07:25:49;;;;;;;24.27;18.45;;;;;;;;;;5008534;28;20038;-62
2022/01/24 07:28:16;;;;;;;21.02;17.27;;;;;;;;;;5008930;28;20119;-61
2022/01/24 07:30:43;;;;;;;20.35;17.50;;;;;;;;;;5009011;28;20046;-61
2022/01/24 07:33:09;;;;;;;26.88;19.15;;;;;;;;;;5009118;28;20119;-61
2022/01/24 07:35:35;;;;;;;22.27;17.77;;;;;;;;;;5008984;28;20053;-61
2022/01/24 07:38:02;;;;;;;23.80;18.27;;;;;;;;;;5013403;28;20049;-62
2022/01/24 07:40:29;;;;;;;24.27;19.13;;;;;;;;;;5017389;28;20484;-62
2022/01/24 07:43:07;;;;;;;22.73;18.60;;;;;;;;;;5015602;28;20041;-62
2022/01/24 07:45:34;;;;;;;22.67;19.05;;;;;;;;;;5012131;28;20088;-61
2022/01/24 07:48:00;;;;;;;25.20;19.42;;;;;;;;;;5020889;28;20443;-63
2022/01/24 07:50:26;;;;;;;22.75;18.73;;;;;;;;;;5007517;28;20099;-62
2022/01/24 07:52:52;;;;;;;25.05;19.45;;;;;;;;;;5024636;28;20520;-62
2022/01/24 07:55:18;;;;;;;26.20;20.48;;;;;;;;;;5008006;28;20129;-61
2022/01/24 07:57:45;;;;;;;27.48;21.08;;;;;;;;;;5007929;28;20064;-62
2022/01/24 08:00:11;;;;;;;25.55;19.52;;;;;;;;;;5007389;28;20042;-62
2022/01/24 08:02:37;;;;;;;24.00;19.90;;;;;;;;;;5009022;28;20551;-62
2022/01/24 08:05:04;;;;;;;25.27;19.80;;;;;;;;;;5040934;28;20498;-62
2022/01/24 08:07:30;;;;;;;25.80;20.08;;;;;;;;;;5006628;28;20482;-61
2022/01/24 08:09:56;;;;;;;23.73;19.38;;;;;;;;;;5007459;28;20057;-60
2022/01/24 08:12:23;;;;;;;25.83;19.52;;;;;;;;;;5008662;28;20041;-61
2022/01/24 08:14:50;;;;;;;24.17;19.27;;;;;;;;;;5041543;28;20050;-61
2022/01/24 08:17:16;;;;;;;27.92;20.83;;;;;;;;;;5008397;28;20396;-63
2022/01/24 08:19:42;;;;;;;24.52;19.92;;;;;;;;;;5008447;28;20046;-62
2022/01/24 08:22:08;;;;;;;23.05;19.65;;;;;;;;;;5008812;28;20132;-62
2022/01/24 08:24:34;;;;;;;23.77;19.52;;;;;;;;;;5023768;28;20498;-62
2022/01/24 08:27:00;;;;;;;27.67;20.23;;;;;;;;;;5008602;28;20030;-63
2022/01/24 08:29:26;;;;;;;24.35;19.80;;;;;;;;;;5039225;28;20038;-62
2022/01/24 08:31:53;;;;;;;24.67;19.92;;;;;;;;;;5036367;28;20522;-62
2022/01/24 08:34:19;;;;;;;25.75;19.67;;;;;;;;;;5005956;28;20132;-62
2022/01/24 08:36:47;;;;;;;26.65;18.45;;;;;;;;;;5009135;28;20064;-62
2022/01/24 08:39:13;;;;;;;25.33;18.92;;;;;;;;;;5026847;28;20049;-62
2022/01/24 08:42:29;;;;;;;23.45;17.13;;;;;;;;;;4993247;28;20080;-62
2022/01/24 08:47:18;;;;;;;22.33;17.60;;;;;;;;;;4999489;28;20100;-63
2022/01/24 08:49:44;;;;;;;21.10;18.00;;;;;;;;;;5012274;28;20056;-61
2022/01/24 08:52:10;;;;;;;22.88;17.60;;;;;;;;;;5011165;28;20034;-61
2022/01/24 08:54:36;;;;;;;22.00;17.33;;;;;;;;;;4993359;28;20207;-62
2022/01/24 08:57:03;;;;;;;22.77;18.63;;;;;;;;;;5027538;28;20046;-62
2022/01/24 08:59:30;;;;;;;22.67;17.83;;;;;;;;;;5012243;28;20042;-61
2022/01/24 09:01:56;;;;;;;22.63;16.42;;;;;;;;;;5009906;28;20034;-63
2022/01/24 09:04:23;;;;;;;24.00;17.58;;;;;;;;;;5011370;28;20065;-63
2022/01/24 09:06:49;;;;;;;21.63;16.48;;;;;;;;;;5043297;28;20048;-62
2022/01/24 09:09:15;;;;;;;20.45;16.27;;;;;;;;;;5010118;28;20462;-62
2022/01/24 09:11:42;;;;;;;19.35;16.08;;;;;;;;;;5043015;28;20100;-62
2022/01/24 09:14:09;;;;;;;24.88;16.67;;;;;;;;;;5042605;28;20053;-62
2022/01/24 09:16:36;;;;;;;18.85;14.93;;;;;;;;;;5011913;28;20422;-63
2022/01/24 09:19:03;;;;;;;20.50;16.45;;;;;;;;;;5043210;28;20057;-63
2022/01/24 09:21:29;;;;;;;21.60;15.68;;;;;;;;;;5043403;28;20538;-62
2022/01/24 09:23:55;;;;;;;18.77;15.20;;;;;;;;;;5010107;28;20176;-63
2022/01/24 09:26:22;;;;;;;22.13;16.13;;;;;;;;;;5043989;28;20084;-63
2022/01/24 09:28:48;;;;;;;18.48;15.23;;;;;;;;;;5043468;28;20044;-62
2022/01/24 09:31:14;;;;;;;19.67;15.23;;;;;;;;;;5043607;28;20480;-62
2022/01/24 09:33:40;;;;;;;16.90;14.60;;;;;;;;;;5011335;28;20038;-61
2022/01/24 09:36:07;;;;;;;16.70;14.68;;;;;;;;;;5027010;28;20129;-60
2022/01/24 09:38:34;;;;;;;16.85;14.38;;;;;;;;;;5044269;28;20535;-61
2022/01/24 09:41:03;;;;;;;16.00;14.10;;;;;;;;;;5011648;28;20045;-60
2022/01/24 09:43:30;;;;;;;15.52;12.98;;;;;;;;;;5011676;28;20034;-61
2022/01/24 09:45:56;;;;;;;16.20;13.82;;;;;;;;;;5011593;28;20084;-60
2022/01/24 09:48:24;;;;;;;17.35;13.65;;;;;;;;;;5010600;28;20046;-60
2022/01/24 09:50:52;;;;;;;14.57;12.40;;;;;;;;;;5011157;28;20046;-63
2022/01/24 09:53:19;;;;;;;16.33;13.38;;;;;;;;;;5011347;28;20156;-63
2022/01/24 09:55:45;;;;;;;16.48;14.05;;;;;;;;;;5042798;28;20041;-62
2022/01/24 09:58:11;;;;;;;15.80;13.50;;;;;;;;;;5043638;28;20077;-60
2022/01/24 10:00:38;;;;;;;14.95;12.80;;;;;;;;;;5042455;28;20092;-62
2022/01/24 10:03:04;;;;;;;17.00;14.32;;;;;;;;;;5024128;28;20045;-61
2022/01/24 10:05:33;;;;;;;16.40;13.88;;;;;;;;;;4993196;28;20092;-62
2022/01/24 10:08:01;;;;;;;16.63;13.60;;;;;;;;;;5008704;28;20038;-62
2022/01/24 10:10:28;;;;;;;17.52;14.00;;;;;;;;;;5007462;28;20041;-63
2022/01/24 10:18:07;;;;;;;15.60;14.02;;;;;;;;;;5042286;28;20539;-61
2022/01/24 10:20:35;;;;;;;16.13;13.82;;;;;;;;;;5009189;28;20077;-62
2022/01/24 10:23:07;;;;;;;17.60;14.95;;;;;;;;;;5008279;28;20045;-60
2022/01/24 10:25:48;;;;;;;17.50;15.32;;;;;;;;;;5008597;28;20400;-60
2022/01/24 10:28:21;;;;;;;16.65;14.40;;;;;;;;;;5010749;28;20422;-61
2022/01/24 10:30:50;;;;;;;19.45;14.32;;;;;;;;;;5010482;28;21232;-61
2022/01/24 10:33:16;;;;;;;17.15;14.85;;;;;;;;;;5008507;28;20042;-61
2022/01/24 10:35:46;;;;;;;17.63;14.85;;;;;;;;;;5009492;28;20144;-61
2022/01/24 10:38:25;;;;;;;17.83;14.02;;;;;;;;;;5023713;28;20046;-61
2022/01/24 10:40:55;;;;;;;17.70;15.35;;;;;;;;;;5040137;28;20431;-60
2022/01/24 10:43:25;;;;;;;18.00;15.27;;;;;;;;;;5025536;28;20041;-62
2022/01/24 10:45:53;;;;;;;17.27;14.52;;;;;;;;;;5024216;28;20045;-63
2022/01/24 10:48:24;;;;;;;18.30;15.43;;;;;;;;;;5021572;28;20033;-63
2022/01/24 10:51:03;;;;;;;17.33;13.70;;;;;;;;;;5039911;28;20049;-62
2022/01/24 10:53:34;;;;;;;20.58;16.30;;;;;;;;;;5041159;28;20042;-62
2022/01/24 10:56:00;;;;;;;20.30;16.30;;;;;;;;;;5008680;28;20033;-62
2022/01/24 10:58:33;;;;;;;19.55;15.95;;;;;;;;;;5009920;28;20038;-62
2022/01/24 11:00:59;;;;;;;18.85;15.98;;;;;;;;;;5006763;28;20125;-62
2022/01/24 11:03:26;;;;;;;21.20;16.77;;;;;;;;;;5007706;28;20030;-62
2022/01/24 11:05:52;;;;;;;22.00;17.58;;;;;;;;;;5040824;28;20073;-63
2022/01/24 11:08:18;;;;;;;23.30;19.42;;;;;;;;;;5008054;28;20088;-62
2022/01/24 11:10:45;;;;;;;23.88;19.58;;;;;;;;;;5040973;28;20117;-62
2022/01/24 11:13:12;;;;;;;25.80;20.67;;;;;;;;;;5007581;28;20487;-62
2022/01/24 11:15:41;;;;;;;24.63;20.85;;;;;;;;;;5006154;28;20418;-62
2022/01/24 11:18:08;;;;;;;25.23;19.70;;;;;;;;;;5005409;28;20034;-63
2022/01/24 11:20:40;;;;;;;27.85;22.30;;;;;;;;;;5042652;28;20045;-61
2022/01/24 11:23:12;;;;;;;25.63;21.05;;;;;;;;;;5040103;28;20064;-63
2022/01/24 11:25:43;;;;;;;27.48;22.67;;;;;;;;;;5010006;28;20077;-62
2022/01/24 11:28:10;;;;;;;29.92;23.52;;;;;;;;;;5008001;28;20416;-63
2022/01/24 11:30:48;;;;;;;30.50;24.38;;;;;;;;;;5010164;28;20038;-64
2022/01/24 11:33:17;;;;;;;28.90;23.58;;;;;;;;;;5008692;28;20050;-62
2022/01/24 11:35:50;;;;;;;31.40;23.52;;;;;;;;;;5008251;28;20046;-62
2022/01/24 11:38:26;;;;;;;30.25;23.77;;;;;;;;;;5005712;28;20061;-63
2022/01/24 11:40:58;;;;;;;29.80;23.30;;;;;;;;;;5004524;28;20121;-63
2022/01/24 11:43:29;;;;;;;34.72;26.83;;;;;;;;;;5005331;28;20042;-63
2022/01/24 11:46:00;;;;;;;33.53;25.85;;;;;;;;;;4974363;28;20180;-60
2022/01/24 11:48:26;;;;;;;36.38;28.00;;;;;;;;;;5009263;28;20662;-62
2022/01/24 11:51:00;;;;;;;37.05;27.42;;;;;;;;;;5040171;28;20057;-62
2022/01/24 11:53:28;;;;;;;41.25;31.25;;;;;;;;;;5040788;28;20104;-62
2022/01/24 11:55:55;;;;;;;37.72;29.70;;;;;;;;;;5007179;28;20057;-63
2022/01/24 11:58:23;;;;;;;40.00;29.65;;;;;;;;;;5007630;28;21305;-62
2022/01/24 12:00:51;;;;;;;39.25;29.42;;;;;;;;;;4991647;28;20033;-62
2022/01/24 12:03:23;;;;;;;41.65;31.40;;;;;;;;;;4991332;28;20120;-62
2022/01/24 12:05:51;;;;;;;41.63;32.08;;;;;;;;;;5040701;28;20586;-62
2022/01/24 12:08:31;;;;;;;43.53;32.90;;;;;;;;;;5024065;28;20041;-63
2022/01/24 12:11:23;;;;;;;40.90;30.52;;;;;;;;;;5007316;28;20129;-62
2022/01/24 12:13:53;;;;;;;43.00;30.95;;;;;;;;;;5010173;28;20396;-61
2022/01/24 12:16:20;;;;;;;38.45;28.25;;;;;;;;;;5010984;28;20388;-61
2022/01/24 12:18:48;;;;;;;36.25;26.88;;;;;;;;;;5010926;28;20057;-62
2022/01/24 12:21:15;;;;;;;37.30;28.05;;;;;;;;;;5043927;28;20515;-62
2022/01/24 12:23:46;;;;;;;35.25;27.50;;;;;;;;;;5043990;28;20089;-63
2022/01/24 12:26:15;;;;;;;36.03;26.98;;;;;;;;;;4992464;28;20038;-62
2022/01/24 12:28:47;;;;;;;37.15;26.75;;;;;;;;;;5010954;28;20092;-62
2022/01/24 12:31:31;;;;;;;34.95;25.88;;;;;;;;;;5010788;28;20052;-61
2022/01/24 12:34:16;;;;;;;35.40;27.98;;;;;;;;;;5011834;28;20100;-62
2022/01/24 12:36:50;;;;;;;35.80;27.45;;;;;;;;;;5044027;28;20038;-62
2022/01/24 12:39:33;;;;;;;37.22;28.58;;;;;;;;;;5010815;28;20061;-62
2022/01/24 12:42:18;;;;;;;41.35;30.58;;;;;;;;;;5010271;28;20041;-62
2022/01/24 12:47:13;;;;;;;45.88;31.08;;;;;;;;;;5010629;28;20045;-62
2022/01/24 12:49:39;;;;;;;42.30;31.77;;;;;;;;;;5012135;28;20033;-62
2022/01/24 12:52:13;;;;;;;43.97;33.35;;;;;;;;;;5011467;28;20045;-61
2022/01/24 12:54:44;;;;;;;42.60;31.83;;;;;;;;;;5010271;28;20045;-62
2022/01/24 12:57:11;;;;;;;41.63;31.08;;;;;;;;;;5043498;28;20038;-62
2022/01/24 12:59:38;;;;;;;44.53;33.28;;;;;;;;;;5043530;28;20073;-63
2022/01/24 13:02:09;;;;;;;46.05;33.55;;;;;;;;;;5011167;28;20369;-63
2022/01/24 13:04:40;;;;;;;45.72;32.75;;;;;;;;;;5011606;28;20416;-61
2022/01/24 13:07:07;;;;;;;46.60;34.40;;;;;;;;;;5043783;28;20135;-62
2022/01/24 13:09:36;;;;;;;47.63;35.30;;;;;;;;;;5010290;28;20129;-62
2022/01/24 13:12:05;;;;;;;50.50;34.60;;;;;;;;;;5010134;28;20076;-62
2022/01/24 13:14:38;;;;;;;49.05;34.75;;;;;;;;;;5010986;28;20046;-63
2022/01/24 13:25:12;;;;;;;47.90;32.67;;;;;;;;;;5041475;28;20481;-62
2022/01/24 13:27:38;;;;;;;44.47;31.40;;;;;;;;;;5043068;28;20092;-62
2022/01/24 13:30:06;;;;;;;40.63;29.65;;;;;;;;;;4994098;28;20049;-63
2022/01/24 13:32:51;;;;;;;43.58;30.65;;;;;;;;;;5011750;28;20396;-62
2022/01/24 13:35:19;;;;;;;42.90;31.23;;;;;;;;;;5044866;28;20049;-62
2022/01/24 13:37:45;;;;;;;43.17;31.40;;;;;;;;;;5011124;28;20045;-63
2022/01/24 13:40:14;;;;;;;41.47;30.55;;;;;;;;;;5027726;28;20053;-63
2022/01/24 13:42:40;;;;;;;39.45;28.48;;;;;;;;;;5027732;28;20511;-63
2022/01/24 13:45:07;;;;;;;40.65;28.55;;;;;;;;;;5044596;28;20060;-61
2022/01/24 13:47:34;;;;;;;40.58;29.40;;;;;;;;;;5011678;28;20124;-61
2022/01/24 13:50:00;;;;;;;36.17;27.23;;;;;;;;;;5012407;28;20550;-61
2022/01/24 13:52:28;;;;;;;40.92;29.80;;;;;;;;;;5011957;28;20041;-61
2022/01/24 13:54:54;;;;;;;40.03;30.02;;;;;;;;;;5010301;28;20048;-62
2022/01/24 13:57:20;;;;;;;41.53;31.08;;;;;;;;;;4993424;28;20106;-61
2022/01/24 13:59:47;;;;;;;40.00;28.92;;;;;;;;;;5024710;28;20037;-61
2022/01/24 14:02:19;;;;;;;41.78;29.52;;;;;;;;;;5009431;28;20058;-62
2022/01/24 14:04:48;;;;;;;35.10;26.70;;;;;;;;;;5010045;28;20030;-60
2022/01/24 14:07:21;;;;;;;35.50;26.95;;;;;;;;;;5009554;28;20050;-64
2022/01/24 14:09:52;;;;;;;34.05;26.25;;;;;;;;;;5008565;28;20480;-60
2022/01/24 14:12:21;;;;;;;33.15;26.48;;;;;;;;;;5011264;28;20125;-60
2022/01/24 14:14:52;;;;;;;34.38;26.95;;;;;;;;;;5011702;28;20079;-61
2022/01/24 14:19:53;;;;;;;34.47;25.58;;;;;;;;;;5042207;28;20041;-62
2022/01/24 14:22:19;;;;;;;33.45;24.90;;;;;;;;;;5025168;28;20574;-61
2022/01/24 14:24:55;;;;;;;31.70;24.98;;;;;;;;;;5042467;28;20107;-63
2022/01/24 14:27:41;;;;;;;33.90;25.38;;;;;;;;;;5008665;28;20157;-62
2022/01/24 14:30:31;;;;;;;33.40;26.80;;;;;;;;;;5010251;28;20042;-62
2022/01/24 14:33:13;;;;;;;34.22;26.33;;;;;;;;;;5004934;28;20065;-62
2022/01/24 14:35:39;;;;;;;33.83;26.27;;;;;;;;;;5041709;28;20042;-62
2022/01/24 14:38:08;;;;;;;38.15;28.05;;;;;;;;;;5024310;28;20038;-62
2022/01/24 14:40:45;;;;;;;36.92;27.48;;;;;;;;;;5008183;28;20052;-62
2022/01/24 14:45:56;;;;;;;33.13;26.00;;;;;;;;;;5008670;28;20037;-62
2022/01/24 14:48:23;;;;;;;35.72;27.23;;;;;;;;;;5010426;28;20048;-61
2022/01/24 14:50:49;;;;;;;34.72;27.42;;;;;;;;;;5009271;28;20056;-62
2022/01/24 14:53:16;;;;;;;31.30;25.02;;;;;;;;;;5010182;28;20034;-62
2022/01/24 14:55:43;;;;;;;33.83;26.08;;;;;;;;;;5008866;28;20038;-62
2022/01/24 14:58:09;;;;;;;34.20;25.83;;;;;;;;;;5008911;28;20034;-62
2022/01/24 15:00:35;;;;;;;31.98;26.23;;;;;;;;;;5010243;28;20049;-62
2022/01/24 15:03:01;;;;;;;33.58;26.35;;;;;;;;;;5007862;28;20103;-63
2022/01/24 15:05:27;;;;;;;34.40;26.65;;;;;;;;;;5041095;28;20034;-62
2022/01/24 15:07:53;;;;;;;32.80;26.65;;;;;;;;;;5008209;28;20498;-63
2022/01/24 15:10:20;;;;;;;33.58;26.25;;;;;;;;;;5009791;28;20566;-63
2022/01/24 15:12:53;;;;;;;34.30;27.45;;;;;;;;;;5008902;28;20129;-61
2022/01/24 15:15:21;;;;;;;35.50;27.33;;;;;;;;;;5009368;28;20069;-60
2022/01/24 15:24:25;;;;;;;33.05;26.23;;;;;;;;;;5008464;28;20088;-63
2022/01/24 15:25:57;;;;;;;35.30;27.85;;;;;;;;;;4997893;28;20049;-63
2022/01/24 15:28:23;;;;;;;33.33;26.33;;;;;;;;;;5008472;28;20042;-63
2022/01/24 15:30:49;;;;;;;35.55;27.48;;;;;;;;;;4992127;28;20045;-63
2022/01/24 15:33:15;;;;;;;34.58;27.77;;;;;;;;;;5026055;28;20038;-63
2022/01/24 15:35:41;;;;;;;33.80;26.33;;;;;;;;;;5012098;28;20087;-62
2022/01/24 15:38:07;;;;;;;38.42;29.38;;;;;;;;;;5039989;28;20045;-63
2022/01/24 15:40:39;;;;;;;38.63;28.45;;;;;;;;;;5003710;28;20767;-63
2022/01/24 15:45:40;;;;;;;37.85;27.65;;;;;;;;;;5008837;28;20439;-64
2022/01/24 15:48:08;;;;;;;37.17;28.65;;;;;;;;;;4990543;28;20045;-63
2022/01/24 15:50:35;;;;;;;38.63;29.17;;;;;;;;;;5040632;28;20050;-63
2022/01/24 15:53:02;;;;;;;41.35;30.75;;;;;;;;;;4991532;28;20484;-62
2022/01/24 15:55:41;;;;;;;37.35;28.90;;;;;;;;;;5008318;28;20057;-63
2022/01/24 15:58:07;;;;;;;37.28;28.25;;;;;;;;;;5007099;28;20042;-63
2022/01/24 16:00:38;;;;;;;37.28;27.98;;;;;;;;;;5023528;28;20034;-63
2022/01/24 16:03:06;;;;;;;37.53;29.45;;;;;;;;;;5008210;28;20038;-62
2022/01/24 16:05:33;;;;;;;37.70;28.70;;;;;;;;;;5037221;28;20547;-63
2022/01/24 16:08:00;;;;;;;37.78;27.85;;;;;;;;;;5023744;28;20052;-62
2022/01/24 16:10:29;;;;;;;35.58;27.73;;;;;;;;;;5009051;28;20560;-62
2022/01/24 16:12:55;;;;;;;37.17;27.92;;;;;;;;;;5006588;28;20080;-63
2022/01/24 16:15:25;;;;;;;40.08;29.75;;;;;;;;;;5008563;28;20041;-62
2022/01/24 16:17:52;;;;;;;42.53;30.05;;;;;;;;;;5007278;28;20056;-62
2022/01/24 16:25:44;;;;;;;46.05;31.50;;;;;;;;;;5007836;28;20073;-63
2022/01/24 16:28:22;;;;;;;43.70;31.15;;;;;;;;;;5004535;28;20042;-63
2022/01/24 16:30:48;;;;;;;44.53;31.60;;;;;;;;;;5039529;28;20050;-63
2022/01/24 16:33:18;;;;;;;44.20;32.03;;;;;;;;;;5007698;28;20044;-63
2022/01/24 16:35:45;;;;;;;43.22;31.40;;;;;;;;;;5023653;28;20030;-62
2022/01/24 16:38:12;;;;;;;45.42;31.38;;;;;;;;;;5008213;28;20487;-61
2022/01/24 16:40:52;;;;;;;41.83;31.95;;;;;;;;;;5008326;28;20395;-63
2022/01/24 16:43:41;;;;;;;42.90;31.30;;;;;;;;;;5021890;28;20739;-63
2022/01/24 16:48:43;;;;;;;43.70;32.00;;;;;;;;;;5039093;28;20041;-62
2022/01/24 16:51:14;;;;;;;45.72;32.90;;;;;;;;;;5005388;28;20034;-63
2022/01/24 16:53:43;;;;;;;45.78;32.63;;;;;;;;;;5007758;28;20574;-62